Independence — WDD6659 — position and weather

sailwx.info

Track history (hours):
 
Tides and Currents Weather Stations Pressure Air Temp Water Temp Dewpoint Dewpoint Depression Visibility Wind Speed Wind Dir Waves Ship Positions

Independence

Owner: Sortwell, Inc. DBA AmNav Maritime Services, Oakland, CA. More information available from US FCC via Universal Licensing System and Coast Guard Vessel Documentation Center.

Last reported at 2015-May-06 17:15 UTC. Time now 2015-May-06 21:32 UTC.
Position N 33°45' W 118°13'.

; draft 4.9 m.

Type: Tug. MMSI: 367175860.

Date/timePositionNaut miles runAvg speedWind from/ knotsBaromVisibWave heightAir tempDewpointWater temp
2015-May-06 17:15N 33°45' W 118°13'1 0.6
2015-May-06 16:20N 33°45' W 118°13'1 0.8
2015-May-06 15:33N 33°45' W 118°13'0 0.1
2015-May-06 14:29N 33°45' W 118°13'0 0.3
2015-May-06 13:33N 33°45' W 118°13'1 1.4
2015-May-06 12:33N 33°46' W 118°14'1 1.2
2015-May-06 11:33N 33°45' W 118°13'3 0.3
2015-May-06 02:23N 33°45' W 118°16'1 0.7
2015-May-06 01:27N 33°45' W 118°17'1 0.7
2015-May-06 00:32N 33°45' W 118°16'1 0.4
2015-May-05 21:09N 33°44' W 118°17'1 0.1
2015-May-05 12:14N 33°45' W 118°16'0 0.1
2015-May-05 11:29N 33°45' W 118°16'3 3.0
2015-May-05 10:31N 33°45' W 118°13'1 0.3
2015-May-05 08:14N 33°45' W 118°13'0 0.0
2015-May-05 06:33N 33°45' W 118°13'0 0.0
2015-May-05 05:34N 33°45' W 118°13'0 0.0
2015-May-05 04:34N 33°45' W 118°13'0 0.0
2015-May-05 03:33N 33°45' W 118°13'0 0.0
2015-May-05 02:34N 33°45' W 118°13'0 0.4
2015-May-05 01:32N 33°45' W 118°13'0 0.0
2015-May-05 00:33N 33°45' W 118°13'0 0.0
2015-May-04 23:33N 33°45' W 118°13'0 0.0
2015-May-04 22:32N 33°45' W 118°13'0 0.0
2015-May-04 21:33N 33°45' W 118°13'3 2.1
2015-May-04 20:10N 33°45' W 118°16'0 0.2
2015-May-04 19:31N 33°45' W 118°16'4 3.8
2015-May-04 18:33N 33°45' W 118°12'0 0.0
2015-May-04 17:33N 33°45' W 118°12'0 0.0
2015-May-04 16:33N 33°45' W 118°12'1 1.1
2015-May-04 15:33N 33°45' W 118°13'1 0.6
2015-May-04 13:33N 33°44' W 118°12'1 0.4
2015-May-04 12:08N 33°44' W 118°11'1 0.3
2015-May-04 10:19N 33°44' W 118°12'1 1.5
2015-May-04 09:22N 33°45' W 118°13'0 0.0
2015-May-04 08:30N 33°45' W 118°13'0 0.0
2015-May-04 07:23N 33°45' W 118°13'0 0.0
2015-May-04 06:33N 33°45' W 118°13'0 0.0
2015-May-04 05:33N 33°45' W 118°13'0 0.0
2015-May-04 04:33N 33°45' W 118°13'0 0.0
2015-May-04 03:33N 33°45' W 118°13'0 0.0
2015-May-04 02:33N 33°45' W 118°13'0 0.0
2015-May-04 01:33N 33°45' W 118°13'0 0.0
2015-May-04 00:33N 33°45' W 118°13'0 0.0
2015-May-03 23:33N 33°45' W 118°13'0 0.0
2015-May-03 22:34N 33°45' W 118°13'0 0.0
2015-May-03 21:28N 33°45' W 118°13'0 0.0
2015-May-03 20:33N 33°45' W 118°13'1 0.1
2015-May-03 07:09N 33°45' W 118°12'0 0.4
2015-May-03 06:32N 33°45' W 118°13'3 0.7
2015-May-03 01:31N 33°44' W 118°17'0 0.0
2015-May-03 00:31N 33°44' W 118°17'0 0.0
2015-May-02 23:09N 33°44' W 118°17'0 0.0
2015-May-02 22:15N 33°44' W 118°17'0 0.0
2015-May-02 21:15N 33°44' W 118°17'0 0.0
2015-May-02 20:33N 33°44' W 118°17'0 0.0
2015-May-02 19:33N 33°44' W 118°17'0 0.0
2015-May-02 18:33N 33°44' W 118°17'0 0.0
2015-May-02 17:33N 33°44' W 118°17'0 0.0
2015-May-02 16:33N 33°44' W 118°17'0 0.0
2015-May-02 15:33N 33°44' W 118°17'0 0.0
2015-May-02 14:33N 33°44' W 118°17'5 4.7
2015-May-02 13:33N 33°44' W 118°11'0 0.1
2015-May-02 12:32N 33°44' W 118°11'1 0.8
2015-May-02 11:33N 33°44' W 118°11'1 0.7
2015-May-02 10:33N 33°44' W 118°11'0 0.3
2015-May-02 09:33N 33°44' W 118°12'0 0.2
2015-May-02 08:33N 33°44' W 118°11'3 3.2
2015-May-02 07:33N 33°43' W 118°15'3 2.8
2015-May-02 06:33N 33°45' W 118°16'0 0.3
2015-May-02 05:33N 33°45' W 118°17'2 1.6
2015-May-02 04:33N 33°44' W 118°17'0 0.0
2015-May-02 03:31N 33°44' W 118°17'0 0.0
2015-May-02 01:26N 33°44' W 118°17'0 0.0
2015-May-02 00:32N 33°44' W 118°17'0 0.0
2015-May-01 23:33N 33°44' W 118°17'0 0.0
2015-May-01 22:26N 33°44' W 118°17'0 0.0
2015-May-01 21:33N 33°44' W 118°17'0 0.0
2015-May-01 20:26N 33°44' W 118°17'0 0.0
2015-May-01 19:25N 33°44' W 118°17'0 0.0
2015-May-01 18:31N 33°44' W 118°17'0 0.0
2015-May-01 17:33N 33°44' W 118°17'1 1.4
2015-May-01 16:33N 33°44' W 118°15'1 1.5
2015-May-01 15:33N 33°43' W 118°15'3 3.2
2015-May-01 14:33N 33°43' W 118°11'1 1.2
2015-May-01 13:33N 33°44' W 118°12'1 1.2
2015-May-01 12:33N 33°43' W 118°11'2 1.6
2015-May-01 11:31N 33°43' W 118°13'3 2.7
2015-May-01 10:32N 33°44' W 118°17'0 0.0
2015-May-01 06:21N 33°44' W 118°17'0 0.0
2015-May-01 05:26N 33°44' W 118°17'0 0.0
2015-May-01 02:27N 33°44' W 118°17'2 2.4
2015-May-01 01:33N 33°43' W 118°14'3 2.9
2015-May-01 00:33N 33°46' W 118°13'3 3.5
2015-Apr-30 23:33N 33°43' W 118°11'3 3.5
2015-Apr-30 22:34N 33°46' W 118°14'1 0.8
2015-Apr-30 21:33N 33°45' W 118°13'2 2.1
2015-Apr-30 20:32N 33°43' W 118°12'4 3.7
2015-Apr-30 19:33N 33°44' W 118°17'0 0.0
2015-Apr-30 18:33N 33°44' W 118°17'0 0.0
2015-Apr-30 17:33N 33°44' W 118°17'0 0.0
2015-Apr-30 16:31N 33°44' W 118°17'0 0.1
2015-Apr-30 15:33N 33°44' W 118°16'2 1.8
2015-Apr-30 14:34N 33°45' W 118°16'1 1.3
2015-Apr-30 13:31N 33°44' W 118°17'1 1.5
2015-Apr-30 12:32N 33°45' W 118°16'2 1.9
2015-Apr-30 11:32N 33°44' W 118°17'0 0.0
2015-Apr-30 10:32N 33°44' W 118°17'0 0.0
2015-Apr-30 09:33N 33°44' W 118°17'0 0.0
2015-Apr-30 08:33N 33°44' W 118°17'0 0.0
2015-Apr-30 07:23N 33°44' W 118°17'0 0.0
2015-Apr-30 06:29N 33°44' W 118°17'0 0.0
2015-Apr-30 05:24N 33°44' W 118°17'0 0.0
2015-Apr-30 04:32N 33°44' W 118°17'0 0.0
2015-Apr-30 03:32N 33°44' W 118°17'0 0.0
2015-Apr-30 01:07N 33°44' W 118°17'0 0.0
2015-Apr-30 00:24N 33°44' W 118°17'0 0.0
2015-Apr-29 23:33N 33°44' W 118°17'0 0.4
2015-Apr-29 22:33N 33°43' W 118°17'0 0.3
2015-Apr-29 21:27N 33°44' W 118°17'0 0.0
2015-Apr-29 20:30N 33°44' W 118°17'0 0.0
2015-Apr-29 18:18N 33°44' W 118°17'0 0.0
2015-Apr-29 17:33N 33°44' W 118°17'0 0.0
2015-Apr-29 16:33N 33°44' W 118°17'0 0.0
2015-Apr-29 15:33N 33°44' W 118°17'0 0.0
2015-Apr-29 14:28N 33°44' W 118°17'0 0.0
2015-Apr-29 13:31N 33°44' W 118°17'0 0.0
2015-Apr-29 12:33N 33°44' W 118°17'0 0.0
2015-Apr-29 11:28N 33°44' W 118°17'1 0.7
2015-Apr-29 10:33N 33°43' W 118°16'1 0.7
2015-Apr-29 09:33N 33°44' W 118°17'0 0.0
2015-Apr-29 08:33N 33°44' W 118°17'0 0.0
2015-Apr-29 07:31N 33°44' W 118°17'0 0.0
2015-Apr-29 06:33N 33°44' W 118°17'0 0.0
2015-Apr-29 05:33N 33°44' W 118°17'3 3.4
2015-Apr-29 04:33N 33°46' W 118°13'1 0.7
2015-Apr-29 03:28N 33°46' W 118°13'0 0.0
2015-Apr-29 02:32N 33°46' W 118°13'2 2.2
2015-Apr-29 01:33N 33°44' W 118°12'1 1.2
2015-Apr-29 00:33N 33°43' W 118°11'4 4.2
2015-Apr-28 23:32N 33°44' W 118°17'0 0.0
2015-Apr-28 22:33N 33°44' W 118°17'0 0.0
2015-Apr-28 21:33N 33°44' W 118°17'0 0.0
2015-Apr-28 20:33N 33°44' W 118°17'1 0.1
2015-Apr-28 16:30N 33°43' W 118°16'5 2.0
2015-Apr-28 14:14N 33°44' W 118°11'0 0.5
2015-Apr-28 13:31N 33°44' W 118°11'5 0.4
2015-Apr-28 02:30N 33°44' W 118°17'0 0.0
2015-Apr-28 01:32N 33°44' W 118°17'1 0.2
2015-Apr-27 20:26N 33°45' W 118°16'1 1.2
2015-Apr-27 19:33N 33°46' W 118°16'2 0.7
2015-Apr-27 16:23N 33°44' W 118°17'0 0.0
2015-Apr-27 15:33N 33°44' W 118°17'0 0.0
2015-Apr-27 14:23N 33°44' W 118°17'1 0.5
2015-Apr-27 12:27N 33°45' W 118°16'0 0.4
2015-Apr-27 11:33N 33°45' W 118°16'1 1.2
2015-Apr-27 10:28N 33°44' W 118°17'0 0.0
2015-Apr-27 06:22N 33°44' W 118°17'0 0.0
2015-Apr-27 05:32N 33°44' W 118°17'2 0.4
2015-Apr-26 23:33N 33°43' W 118°14'3 3.3
2015-Apr-26 22:33N 33°44' W 118°10'5 5.0
2015-Apr-26 21:28N 33°44' W 118°17'0 0.0
2015-Apr-26 20:31N 33°44' W 118°17'0 0.0
2015-Apr-26 19:08N 33°44' W 118°17'0 0.0
2015-Apr-26 18:27N 33°44' W 118°17'0 0.0
2015-Apr-26 17:33N 33°44' W 118°17'  
Track history (hours):
 
Tides and Currents Weather Stations Pressure Air Temp Water Temp Dewpoint Dewpoint Depression Visibility Wind Speed Wind Dir Waves Ship Positions

Independence

Owner: Sortwell, Inc. DBA AmNav Maritime Services, Oakland, CA. More information available from US FCC via Universal Licensing System and Coast Guard Vessel Documentation Center.

Last reported at 2015-May-06 17:15 UTC. Time now 2015-May-06 21:32 UTC.
Position N 33°45' W 118°13'.

; draft 4.9 m.

Type: Tug. MMSI: 367175860.

Date/timePositionNaut miles runAvg speedWind from/ knotsBaromVisibWave heightAir tempDewpointWater temp
2015-May-06 17:15N 33°45' W 118°13'1 0.6
2015-May-06 16:20N 33°45' W 118°13'1 0.8
2015-May-06 15:33N 33°45' W 118°13'0 0.1
2015-May-06 14:29N 33°45' W 118°13'0 0.3
2015-May-06 13:33N 33°45' W 118°13'1 1.4
2015-May-06 12:33N 33°46' W 118°14'1 1.2
2015-May-06 11:33N 33°45' W 118°13'3 0.3
2015-May-06 02:23N 33°45' W 118°16'1 0.7
2015-May-06 01:27N 33°45' W 118°17'1 0.7
2015-May-06 00:32N 33°45' W 118°16'1 0.4
2015-May-05 21:09N 33°44' W 118°17'1 0.1
2015-May-05 12:14N 33°45' W 118°16'0 0.1
2015-May-05 11:29N 33°45' W 118°16'3 3.0
2015-May-05 10:31N 33°45' W 118°13'1 0.3
2015-May-05 08:14N 33°45' W 118°13'0 0.0
2015-May-05 06:33N 33°45' W 118°13'0 0.0
2015-May-05 05:34N 33°45' W 118°13'0 0.0
2015-May-05 04:34N 33°45' W 118°13'0 0.0
2015-May-05 03:33N 33°45' W 118°13'0 0.0
2015-May-05 02:34N 33°45' W 118°13'0 0.4
2015-May-05 01:32N 33°45' W 118°13'0 0.0
2015-May-05 00:33N 33°45' W 118°13'0 0.0
2015-May-04 23:33N 33°45' W 118°13'0 0.0
2015-May-04 22:32N 33°45' W 118°13'0 0.0
2015-May-04 21:33N 33°45' W 118°13'3 2.1
2015-May-04 20:10N 33°45' W 118°16'0 0.2
2015-May-04 19:31N 33°45' W 118°16'4 3.8
2015-May-04 18:33N 33°45' W 118°12'0 0.0
2015-May-04 17:33N 33°45' W 118°12'0 0.0
2015-May-04 16:33N 33°45' W 118°12'1 1.1
2015-May-04 15:33N 33°45' W 118°13'1 0.6
2015-May-04 13:33N 33°44' W 118°12'1 0.4
2015-May-04 12:08N 33°44' W 118°11'1 0.3
2015-May-04 10:19N 33°44' W 118°12'1 1.5
2015-May-04 09:22N 33°45' W 118°13'0 0.0
2015-May-04 08:30N 33°45' W 118°13'0 0.0
2015-May-04 07:23N 33°45' W 118°13'0 0.0
2015-May-04 06:33N 33°45' W 118°13'0 0.0
2015-May-04 05:33N 33°45' W 118°13'0 0.0
2015-May-04 04:33N 33°45' W 118°13'0 0.0
2015-May-04 03:33N 33°45' W 118°13'0 0.0
2015-May-04 02:33N 33°45' W 118°13'0 0.0
2015-May-04 01:33N 33°45' W 118°13'0 0.0
2015-May-04 00:33N 33°45' W 118°13'0 0.0
2015-May-03 23:33N 33°45' W 118°13'0 0.0
2015-May-03 22:34N 33°45' W 118°13'0 0.0
2015-May-03 21:28N 33°45' W 118°13'0 0.0
2015-May-03 20:33N 33°45' W 118°13'1 0.1
2015-May-03 07:09N 33°45' W 118°12'0 0.4
2015-May-03 06:32N 33°45' W 118°13'3 0.7
2015-May-03 01:31N 33°44' W 118°17'0 0.0
2015-May-03 00:31N 33°44' W 118°17'0 0.0
2015-May-02 23:09N 33°44' W 118°17'0 0.0
2015-May-02 22:15N 33°44' W 118°17'0 0.0
2015-May-02 21:15N 33°44' W 118°17'0 0.0
2015-May-02 20:33N 33°44' W 118°17'0 0.0
2015-May-02 19:33N 33°44' W 118°17'0 0.0
2015-May-02 18:33N 33°44' W 118°17'0 0.0
2015-May-02 17:33N 33°44' W 118°17'0 0.0
2015-May-02 16:33N 33°44' W 118°17'0 0.0
2015-May-02 15:33N 33°44' W 118°17'0 0.0
2015-May-02 14:33N 33°44' W 118°17'5 4.7
2015-May-02 13:33N 33°44' W 118°11'0 0.1
2015-May-02 12:32N 33°44' W 118°11'1 0.8
2015-May-02 11:33N 33°44' W 118°11'1 0.7
2015-May-02 10:33N 33°44' W 118°11'0 0.3
2015-May-02 09:33N 33°44' W 118°12'0 0.2
2015-May-02 08:33N 33°44' W 118°11'3 3.2
2015-May-02 07:33N 33°43' W 118°15'3 2.8
2015-May-02 06:33N 33°45' W 118°16'0 0.3
2015-May-02 05:33N 33°45' W 118°17'2 1.6
2015-May-02 04:33N 33°44' W 118°17'0 0.0
2015-May-02 03:31N 33°44' W 118°17'0 0.0
2015-May-02 01:26N 33°44' W 118°17'0 0.0
2015-May-02 00:32N 33°44' W 118°17'0 0.0
2015-May-01 23:33N 33°44' W 118°17'0 0.0
2015-May-01 22:26N 33°44' W 118°17'0 0.0
2015-May-01 21:33N 33°44' W 118°17'0 0.0
2015-May-01 20:26N 33°44' W 118°17'0 0.0
2015-May-01 19:25N 33°44' W 118°17'0 0.0
2015-May-01 18:31N 33°44' W 118°17'0 0.0
2015-May-01 17:33N 33°44' W 118°17'1 1.4
2015-May-01 16:33N 33°44' W 118°15'1 1.5
2015-May-01 15:33N 33°43' W 118°15'3 3.2
2015-May-01 14:33N 33°43' W 118°11'1 1.2
2015-May-01 13:33N 33°44' W 118°12'1 1.2
2015-May-01 12:33N 33°43' W 118°11'2 1.6
2015-May-01 11:31N 33°43' W 118°13'3 2.7
2015-May-01 10:32N 33°44' W 118°17'0 0.0
2015-May-01 06:21N 33°44' W 118°17'0 0.0
2015-May-01 05:26N 33°44' W 118°17'0 0.0
2015-May-01 02:27N 33°44' W 118°17'2 2.4
2015-May-01 01:33N 33°43' W 118°14'3 2.9
2015-May-01 00:33N 33°46' W 118°13'3 3.5
2015-Apr-30 23:33N 33°43' W 118°11'3 3.5
2015-Apr-30 22:34N 33°46' W 118°14'1 0.8
2015-Apr-30 21:33N 33°45' W 118°13'2 2.1
2015-Apr-30 20:32N 33°43' W 118°12'4 3.7
2015-Apr-30 19:33N 33°44' W 118°17'0 0.0
2015-Apr-30 18:33N 33°44' W 118°17'0 0.0
2015-Apr-30 17:33N 33°44' W 118°17'0 0.0
2015-Apr-30 16:31N 33°44' W 118°17'0 0.1
2015-Apr-30 15:33N 33°44' W 118°16'2 1.8
2015-Apr-30 14:34N 33°45' W 118°16'1 1.3
2015-Apr-30 13:31N 33°44' W 118°17'1 1.5
2015-Apr-30 12:32N 33°45' W 118°16'2 1.9
2015-Apr-30 11:32N 33°44' W 118°17'0 0.0
2015-Apr-30 10:32N 33°44' W 118°17'0 0.0
2015-Apr-30 09:33N 33°44' W 118°17'0 0.0
2015-Apr-30 08:33N 33°44' W 118°17'0 0.0
2015-Apr-30 07:23N 33°44' W 118°17'0 0.0
2015-Apr-30 06:29N 33°44' W 118°17'0 0.0
2015-Apr-30 05:24N 33°44' W 118°17'0 0.0
2015-Apr-30 04:32N 33°44' W 118°17'0 0.0
2015-Apr-30 03:32N 33°44' W 118°17'0 0.0
2015-Apr-30 01:07N 33°44' W 118°17'0 0.0
2015-Apr-30 00:24N 33°44' W 118°17'0 0.0
2015-Apr-29 23:33N 33°44' W 118°17'0 0.4
2015-Apr-29 22:33N 33°43' W 118°17'0 0.3
2015-Apr-29 21:27N 33°44' W 118°17'0 0.0
2015-Apr-29 20:30N 33°44' W 118°17'0 0.0
2015-Apr-29 18:18N 33°44' W 118°17'0 0.0
2015-Apr-29 17:33N 33°44' W 118°17'0 0.0
2015-Apr-29 16:33N 33°44' W 118°17'0 0.0
2015-Apr-29 15:33N 33°44' W 118°17'0 0.0
2015-Apr-29 14:28N 33°44' W 118°17'0 0.0
2015-Apr-29 13:31N 33°44' W 118°17'0 0.0
2015-Apr-29 12:33N 33°44' W 118°17'0 0.0
2015-Apr-29 11:28N 33°44' W 118°17'1 0.7
2015-Apr-29 10:33N 33°43' W 118°16'1 0.7
2015-Apr-29 09:33N 33°44' W 118°17'0 0.0
2015-Apr-29 08:33N 33°44' W 118°17'0 0.0
2015-Apr-29 07:31N 33°44' W 118°17'0 0.0
2015-Apr-29 06:33N 33°44' W 118°17'0 0.0
2015-Apr-29 05:33N 33°44' W 118°17'3 3.4
2015-Apr-29 04:33N 33°46' W 118°13'1 0.7
2015-Apr-29 03:28N 33°46' W 118°13'0 0.0
2015-Apr-29 02:32N 33°46' W 118°13'2 2.2
2015-Apr-29 01:33N 33°44' W 118°12'1 1.2
2015-Apr-29 00:33N 33°43' W 118°11'4 4.2
2015-Apr-28 23:32N 33°44' W 118°17'0 0.0
2015-Apr-28 22:33N 33°44' W 118°17'0 0.0
2015-Apr-28 21:33N 33°44' W 118°17'0 0.0
2015-Apr-28 20:33N 33°44' W 118°17'1 0.1
2015-Apr-28 16:30N 33°43' W 118°16'5 2.0
2015-Apr-28 14:14N 33°44' W 118°11'0 0.5
2015-Apr-28 13:31N 33°44' W 118°11'5 0.4
2015-Apr-28 02:30N 33°44' W 118°17'0 0.0
2015-Apr-28 01:32N 33°44' W 118°17'1 0.2
2015-Apr-27 20:26N 33°45' W 118°16'1 1.2
2015-Apr-27 19:33N 33°46' W 118°16'2 0.7
2015-Apr-27 16:23N 33°44' W 118°17'0 0.0
2015-Apr-27 15:33N 33°44' W 118°17'0 0.0
2015-Apr-27 14:23N 33°44' W 118°17'1 0.5
2015-Apr-27 12:27N 33°45' W 118°16'0 0.4
2015-Apr-27 11:33N 33°45' W 118°16'1 1.2
2015-Apr-27 10:28N 33°44' W 118°17'0 0.0
2015-Apr-27 06:22N 33°44' W 118°17'0 0.0
2015-Apr-27 05:32N 33°44' W 118°17'2 0.4
2015-Apr-26 23:33N 33°43' W 118°14'3 3.3
2015-Apr-26 22:33N 33°44' W 118°10'5 5.0
2015-Apr-26 21:28N 33°44' W 118°17'0 0.0
2015-Apr-26 20:31N 33°44' W 118°17'0 0.0
2015-Apr-26 19:08N 33°44' W 118°17'0 0.0
2015-Apr-26 18:27N 33°44' W 118°17'0 0.0
2015-Apr-26 17:33N 33°44' W 118°17'  

Dump ship's entire track history